Chesterfield, Virginia
Current Conditions -  °F | °C
As of 12:55 AM on Saturday 20 Dec 2014 (Local Time) from KFCI Reporting Station
Clear Clear  
Wind Chill: 34°   Ceiling: Unl
Heat Index: 34°   Visibility: 10mi
Dew Point: 14°   Wind: 3mph
Humidity: 44%   Direction: 60°ENE
Pressure: 30.26"   Gusts: NA
Location:  37.38°N, 77.51°W
Report Text: KFCI 200555Z AUTO 06003KT 10SM CLR 01/M10 A3026 RMK AO1 10020 21010 52003
Loading
Personal Weather Stations






























Interactive Weather Map New forecast layout! Learn more

10-Day Weather Forecast

Advertisements
Track Severe Weather on mobile